Time;durP1;ratioP1;P1;durP2;ratioP2;P2;SDS_P1;SDS_P2;PMS_P1;PMS_P2;Temp;Humidity;BMP_temperature;BMP_pressure;BME280_temperature;BME280_humidity;BME280_pressure;Samples;Min_cycle;Max_cycle;Signal;HPM_P1;HPM_P2
2023/06/13 00:02:02;;;;;;;7.18;3.90;;;;;;;;;;4968823;28;20450;-74
2023/06/13 00:04:30;;;;;;;4.70;3.10;;;;;;;;;;4951089;28;20667;-75
2023/06/13 00:06:57;;;;;;;3.83;2.90;;;;;;;;;;4971136;28;20626;-75
2023/06/13 00:09:24;;;;;;;3.33;2.95;;;;;;;;;;4960794;28;20438;-75
2023/06/13 00:11:50;;;;;;;3.92;2.67;;;;;;;;;;4950637;28;20427;-75
2023/06/13 00:14:20;;;;;;;6.10;3.58;;;;;;;;;;4969674;28;20383;-74
2023/06/13 00:16:50;;;;;;;3.45;3.08;;;;;;;;;;4972156;28;20046;-74
2023/06/13 00:19:16;;;;;;;2.43;2.10;;;;;;;;;;4966503;28;20455;-74
2023/06/13 00:21:41;;;;;;;5.55;3.72;;;;;;;;;;4973303;28;20050;-74
2023/06/13 00:24:07;;;;;;;3.75;3.15;;;;;;;;;;4967093;28;20038;-75
2023/06/13 00:26:32;;;;;;;3.28;2.97;;;;;;;;;;4938986;28;20498;-75
2023/06/13 00:28:57;;;;;;;4.38;3.20;;;;;;;;;;4983772;28;20046;-74
2023/06/13 00:31:29;;;;;;;2.55;2.35;;;;;;;;;;4968218;28;20092;-74
2023/06/13 00:33:58;;;;;;;4.35;3.95;;;;;;;;;;4960346;28;20039;-74
2023/06/13 00:36:25;;;;;;;5.18;4.03;;;;;;;;;;4942548;28;20049;-74
2023/06/13 00:38:55;;;;;;;2.85;2.50;;;;;;;;;;4957887;28;20380;-74
2023/06/13 00:41:20;;;;;;;4.35;3.75;;;;;;;;;;4968367;28;20514;-75
2023/06/13 00:43:46;;;;;;;5.63;3.13;;;;;;;;;;4966010;28;20052;-74
2023/06/13 00:46:13;;;;;;;6.32;3.50;;;;;;;;;;4977697;28;20042;-75
2023/06/13 00:48:42;;;;;;;4.30;2.92;;;;;;;;;;4966882;28;20046;-75
2023/06/13 00:51:09;;;;;;;4.60;3.60;;;;;;;;;;4966093;28;20451;-74
2023/06/13 00:53:35;;;;;;;4.85;3.40;;;;;;;;;;4970679;28;20047;-74
2023/06/13 00:56:01;;;;;;;3.38;2.83;;;;;;;;;;4958350;28;20464;-74
2023/06/13 00:58:28;;;;;;;3.95;3.42;;;;;;;;;;4966395;28;20054;-74
2023/06/13 01:00:54;;;;;;;2.70;2.50;;;;;;;;;;4967053;28;20122;-74
2023/06/13 01:03:19;;;;;;;6.22;3.58;;;;;;;;;;4942029;28;20127;-74
2023/06/13 01:05:46;;;;;;;3.85;2.55;;;;;;;;;;4946428;28;20136;-75
2023/06/13 01:08:23;;;;;;;4.05;3.60;;;;;;;;;;4966286;28;20088;-75
2023/06/13 01:11:06;;;;;;;2.50;2.30;;;;;;;;;;4967588;28;20418;-75
2023/06/13 01:13:39;;;;;;;5.20;3.30;;;;;;;;;;4956181;28;20073;-74
2023/06/13 01:16:28;;;;;;;5.63;3.00;;;;;;;;;;4947370;28;20045;-74
2023/06/13 01:18:56;;;;;;;4.30;3.22;;;;;;;;;;4967322;28;20037;-74
2023/06/13 01:21:24;;;;;;;3.72;3.13;;;;;;;;;;4968373;28;20046;-75
2023/06/13 01:24:07;;;;;;;4.30;2.92;;;;;;;;;;4964952;28;20042;-75
2023/06/13 01:26:51;;;;;;;6.30;3.65;;;;;;;;;;4969434;28;20295;-74
2023/06/13 01:29:17;;;;;;;3.63;3.05;;;;;;;;;;4968797;28;20397;-74
2023/06/13 01:31:46;;;;;;;4.40;3.17;;;;;;;;;;4966961;28;20049;-75
2023/06/13 01:34:12;;;;;;;3.90;2.90;;;;;;;;;;4954261;28;20037;-74
2023/06/13 01:36:38;;;;;;;3.75;3.30;;;;;;;;;;4963537;28;20157;-74
2023/06/13 01:39:04;;;;;;;3.90;3.55;;;;;;;;;;4978027;28;20120;-75
2023/06/13 01:41:29;;;;;;;2.58;2.38;;;;;;;;;;4958199;28;20049;-75
2023/06/13 01:43:54;;;;;;;3.90;2.90;;;;;;;;;;4965634;28;20121;-74
2023/06/13 01:46:30;;;;;;;3.97;3.30;;;;;;;;;;4966790;28;20053;-75
2023/06/13 01:49:17;;;;;;;3.80;3.33;;;;;;;;;;4967397;28;20180;-74
2023/06/13 01:52:07;;;;;;;3.88;2.92;;;;;;;;;;4962713;28;20125;-74
2023/06/13 01:54:37;;;;;;;5.15;2.95;;;;;;;;;;4936909;28;20383;-74
2023/06/13 01:57:06;;;;;;;3.75;3.40;;;;;;;;;;4967936;28;20534;-74
2023/06/13 01:59:33;;;;;;;4.25;3.53;;;;;;;;;;4934499;28;20504;-75
2023/06/13 02:01:59;;;;;;;3.22;2.58;;;;;;;;;;4964260;28;20045;-74
2023/06/13 02:04:25;;;;;;;4.10;3.60;;;;;;;;;;4969900;28;20089;-74
2023/06/13 02:06:51;;;;;;;4.25;3.55;;;;;;;;;;4957715;28;20129;-73
2023/06/13 02:09:16;;;;;;;2.15;1.95;;;;;;;;;;4969244;28;20122;-74
2023/06/13 02:11:42;;;;;;;3.28;2.78;;;;;;;;;;4971402;28;20042;-75
2023/06/13 02:14:07;;;;;;;5.00;3.70;;;;;;;;;;4970552;28;20038;-74
2023/06/13 02:16:32;;;;;;;4.15;3.20;;;;;;;;;;4964316;28;20134;-73
2023/06/13 02:18:59;;;;;;;3.35;2.67;;;;;;;;;;4970674;28;20038;-74
2023/06/13 02:21:25;;;;;;;3.47;2.88;;;;;;;;;;4963155;28;20052;-74
2023/06/13 02:23:51;;;;;;;2.53;2.30;;;;;;;;;;4980440;28;20202;-74
2023/06/13 02:26:16;;;;;;;3.92;3.45;;;;;;;;;;4967317;28;20030;-74
2023/06/13 02:28:42;;;;;;;3.47;2.63;;;;;;;;;;4968581;28;20561;-74
2023/06/13 02:31:08;;;;;;;3.78;3.05;;;;;;;;;;4969168;28;20627;-75
2023/06/13 02:33:36;;;;;;;5.40;3.60;;;;;;;;;;4979620;28;20596;-76
2023/06/13 02:36:02;;;;;;;4.63;2.72;;;;;;;;;;4974111;28;20118;-75
2023/06/13 02:38:27;;;;;;;3.75;3.45;;;;;;;;;;4976348;28;20133;-74
2023/06/13 02:40:54;;;;;;;6.53;3.83;;;;;;;;;;4947313;28;20054;-75
2023/06/13 02:43:19;;;;;;;2.78;2.53;;;;;;;;;;4981046;28;20388;-74
2023/06/13 02:45:45;;;;;;;3.42;2.80;;;;;;;;;;4978407;28;20484;-75
2023/06/13 02:48:11;;;;;;;4.75;3.45;;;;;;;;;;4957620;28;20101;-75
2023/06/13 02:50:36;;;;;;;4.43;3.25;;;;;;;;;;4972028;28;20050;-75
2023/06/13 02:53:02;;;;;;;3.78;3.08;;;;;;;;;;4970234;28;20034;-75
2023/06/13 02:55:29;;;;;;;4.30;3.30;;;;;;;;;;4963542;28;20053;-75
2023/06/13 02:57:55;;;;;;;2.92;2.17;;;;;;;;;;4968770;28;20038;-74
2023/06/13 03:00:20;;;;;;;8.13;3.67;;;;;;;;;;4969349;28;20046;-75
2023/06/13 03:02:46;;;;;;;4.40;3.05;;;;;;;;;;4961718;28;20050;-75
2023/06/13 03:05:15;;;;;;;2.80;2.42;;;;;;;;;;4971224;28;20047;-75
2023/06/13 03:07:46;;;;;;;3.42;3.10;;;;;;;;;;4971645;28;20038;-75
2023/06/13 03:10:12;;;;;;;3.80;3.20;;;;;;;;;;4954653;28;20062;-75
2023/06/13 03:12:38;;;;;;;4.53;3.03;;;;;;;;;;4969237;28;20473;-74
2023/06/13 03:15:04;;;;;;;4.18;3.78;;;;;;;;;;4953170;28;20728;-75
2023/06/13 03:17:29;;;;;;;3.50;2.85;;;;;;;;;;4968396;28;20111;-74
2023/06/13 03:19:55;;;;;;;4.82;3.13;;;;;;;;;;4972336;28;20046;-74
2023/06/13 03:22:20;;;;;;;3.35;2.92;;;;;;;;;;4960015;28;20043;-74
2023/06/13 03:24:46;;;;;;;4.40;3.35;;;;;;;;;;4971642;28;20042;-75
2023/06/13 03:27:12;;;;;;;3.97;3.00;;;;;;;;;;4979317;28;20046;-74
2023/06/13 03:29:41;;;;;;;4.00;3.60;;;;;;;;;;4968905;28;20038;-74
2023/06/13 03:32:09;;;;;;;3.88;3.08;;;;;;;;;;4968696;28;20057;-74
2023/06/13 03:34:38;;;;;;;2.78;2.58;;;;;;;;;;4965419;28;20511;-74
2023/06/13 03:37:08;;;;;;;3.58;3.15;;;;;;;;;;4951363;28;20217;-74
2023/06/13 03:39:34;;;;;;;4.00;3.23;;;;;;;;;;4976464;28;20124;-73
2023/06/13 03:42:00;;;;;;;3.30;2.83;;;;;;;;;;4960397;28;20081;-74
2023/06/13 03:44:27;;;;;;;5.60;3.70;;;;;;;;;;4967742;28;20444;-73
2023/06/13 03:46:55;;;;;;;8.45;3.92;;;;;;;;;;4967999;28;20047;-74
2023/06/13 03:49:21;;;;;;;4.45;2.50;;;;;;;;;;4941689;28;20067;-75
2023/06/13 03:51:46;;;;;;;3.88;3.15;;;;;;;;;;4969038;28;20538;-75
2023/06/13 03:54:11;;;;;;;5.57;3.70;;;;;;;;;;4969406;28;20651;-74
2023/06/13 03:56:37;;;;;;;3.22;2.92;;;;;;;;;;4957665;28;20586;-74
2023/06/13 03:59:02;;;;;;;2.83;2.38;;;;;;;;;;4967102;28;20034;-74
2023/06/13 04:01:28;;;;;;;4.90;3.45;;;;;;;;;;4963920;28;20104;-74
2023/06/13 04:03:54;;;;;;;5.55;3.05;;;;;;;;;;4982870;28;20034;-75
2023/06/13 04:06:19;;;;;;;4.90;2.80;;;;;;;;;;4972649;28;20038;-75
2023/06/13 04:08:45;;;;;;;4.50;3.63;;;;;;;;;;4967353;28;20394;-74
2023/06/13 04:11:10;;;;;;;4.65;3.80;;;;;;;;;;4963154;28;20030;-74
2023/06/13 04:13:35;;;;;;;3.60;3.30;;;;;;;;;;4977008;28;20046;-74
2023/06/13 04:16:01;;;;;;;4.65;4.00;;;;;;;;;;4962903;28;20524;-75
2023/06/13 04:18:27;;;;;;;3.95;3.10;;;;;;;;;;4965008;28;20057;-74
2023/06/13 04:20:53;;;;;;;3.38;3.08;;;;;;;;;;4966521;28;20050;-74
2023/06/13 04:23:19;;;;;;;5.80;4.95;;;;;;;;;;4963359;28;20058;-74
2023/06/13 04:25:45;;;;;;;5.50;4.60;;;;;;;;;;4961753;28;20038;-75
2023/06/13 04:28:13;;;;;;;6.45;4.40;;;;;;;;;;4954097;28;20462;-74
2023/06/13 04:30:40;;;;;;;6.75;4.25;;;;;;;;;;4961128;28;20474;-73
2023/06/13 04:33:13;;;;;;;7.13;4.80;;;;;;;;;;4928550;28;20430;-72
2023/06/13 04:35:44;;;;;;;7.38;4.95;;;;;;;;;;4972887;28;20034;-73
2023/06/13 04:38:13;;;;;;;6.95;4.70;;;;;;;;;;4958913;28;20116;-73
2023/06/13 04:40:39;;;;;;;5.05;4.40;;;;;;;;;;4955286;28;20157;-73
2023/06/13 04:43:05;;;;;;;6.38;4.80;;;;;;;;;;4960621;28;20789;-73
2023/06/13 04:45:33;;;;;;;6.82;4.57;;;;;;;;;;4972864;28;20045;-73
2023/06/13 04:48:01;;;;;;;6.43;4.60;;;;;;;;;;4952283;28;20049;-74
2023/06/13 04:50:31;;;;;;;5.88;4.55;;;;;;;;;;4968752;28;20154;-74
2023/06/13 04:52:57;;;;;;;10.80;4.70;;;;;;;;;;4955988;28;20030;-73
2023/06/13 04:55:25;;;;;;;7.78;4.95;;;;;;;;;;4961923;28;20522;-72
2023/06/13 04:57:51;;;;;;;9.73;4.93;;;;;;;;;;4973336;28;20042;-73
2023/06/13 05:00:18;;;;;;;5.97;4.28;;;;;;;;;;4978907;28;20560;-73
2023/06/13 05:02:45;;;;;;;5.38;4.50;;;;;;;;;;4953693;28;20046;-74
2023/06/13 05:05:10;;;;;;;6.43;4.45;;;;;;;;;;4964142;28;20036;-74
2023/06/13 05:07:40;;;;;;;4.93;4.47;;;;;;;;;;4962053;28;20139;-72
2023/06/13 05:10:08;;;;;;;5.47;4.65;;;;;;;;;;4944443;28;20041;-74
2023/06/13 05:12:33;;;;;;;7.38;4.35;;;;;;;;;;4970488;28;20048;-74
2023/06/13 05:14:58;;;;;;;7.72;4.80;;;;;;;;;;4956046;28;21138;-76
2023/06/13 05:17:24;;;;;;;8.43;4.80;;;;;;;;;;4960557;28;20552;-75
2023/06/13 05:19:50;;;;;;;6.68;5.05;;;;;;;;;;4965469;28;20120;-75
2023/06/13 05:22:16;;;;;;;5.85;5.10;;;;;;;;;;4965566;28;20042;-76
2023/06/13 05:24:41;;;;;;;5.82;5.03;;;;;;;;;;4971390;28;20034;-75
2023/06/13 05:27:07;;;;;;;6.07;5.03;;;;;;;;;;4958721;28;20046;-75
2023/06/13 05:29:33;;;;;;;5.68;4.80;;;;;;;;;;4973628;28;20171;-75
2023/06/13 05:31:58;;;;;;;10.07;5.10;;;;;;;;;;4954631;28;21164;-75
2023/06/13 05:34:24;;;;;;;7.40;5.15;;;;;;;;;;4968214;28;20057;-75
2023/06/13 05:36:49;;;;;;;9.57;4.85;;;;;;;;;;4947781;28;20065;-75
2023/06/13 05:39:15;;;;;;;7.45;4.93;;;;;;;;;;4973230;28;20030;-74
2023/06/13 05:41:40;;;;;;;7.13;5.25;;;;;;;;;;4969777;28;20047;-75
2023/06/13 05:44:06;;;;;;;7.00;4.78;;;;;;;;;;4971133;28;20038;-74
2023/06/13 05:46:32;;;;;;;8.43;5.20;;;;;;;;;;4955207;28;20125;-75
2023/06/13 05:48:58;;;;;;;6.85;5.45;;;;;;;;;;4971156;28;20035;-75
2023/06/13 05:51:23;;;;;;;8.43;5.57;;;;;;;;;;4972345;28;20392;-75
2023/06/13 05:53:48;;;;;;;7.70;5.75;;;;;;;;;;4967688;28;20034;-75
2023/06/13 05:56:14;;;;;;;7.93;5.30;;;;;;;;;;4970428;28;20117;-75
2023/06/13 05:58:39;;;;;;;6.50;4.93;;;;;;;;;;4955171;28;20035;-75
2023/06/13 06:01:05;;;;;;;8.05;5.60;;;;;;;;;;4938400;28;20040;-75
2023/06/13 06:03:31;;;;;;;7.70;6.05;;;;;;;;;;4949987;28;20470;-75
2023/06/13 06:05:57;;;;;;;7.22;5.07;;;;;;;;;;4947701;28;20034;-75
2023/06/13 06:08:23;;;;;;;5.20;4.70;;;;;;;;;;4969577;28;20425;-75
2023/06/13 06:10:48;;;;;;;6.07;4.65;;;;;;;;;;4958579;28;20042;-75
2023/06/13 06:13:13;;;;;;;4.85;4.10;;;;;;;;;;4977773;28;20049;-75
2023/06/13 06:15:40;;;;;;;4.88;4.35;;;;;;;;;;4958423;28;20068;-75
2023/06/13 06:18:05;;;;;;;5.13;4.63;;;;;;;;;;4954272;28;20890;-75
2023/06/13 06:20:31;;;;;;;6.18;5.10;;;;;;;;;;4948325;28;20554;-75
2023/06/13 06:22:56;;;;;;;6.05;4.88;;;;;;;;;;4952988;28;20045;-75
2023/06/13 06:25:22;;;;;;;5.95;4.95;;;;;;;;;;4955403;28;20046;-75
2023/06/13 06:27:47;;;;;;;7.15;4.40;;;;;;;;;;4960180;28;20048;-75
2023/06/13 06:30:13;;;;;;;7.78;4.57;;;;;;;;;;4955727;28;20371;-75
2023/06/13 06:32:40;;;;;;;4.55;4.07;;;;;;;;;;4954987;28;20098;-75
2023/06/13 06:35:05;;;;;;;5.18;4.68;;;;;;;;;;4958723;28;20044;-75
2023/06/13 06:37:31;;;;;;;4.65;3.90;;;;;;;;;;4953050;28;20518;-74
2023/06/13 06:39:57;;;;;;;5.53;4.07;;;;;;;;;;4972536;28;20104;-75
2023/06/13 06:42:22;;;;;;;5.35;4.03;;;;;;;;;;4942802;28;20069;-75
2023/06/13 06:44:48;;;;;;;4.18;3.75;;;;;;;;;;4968587;28;20038;-75
2023/06/13 06:47:14;;;;;;;6.40;4.25;;;;;;;;;;4938455;28;20272;-76
2023/06/13 06:49:41;;;;;;;3.42;3.03;;;;;;;;;;4943793;28;20717;-75
2023/06/13 06:52:06;;;;;;;4.75;3.67;;;;;;;;;;4970664;28;20038;-75
2023/06/13 06:54:31;;;;;;;4.82;4.35;;;;;;;;;;4954420;28;20120;-75
2023/06/13 06:56:57;;;;;;;7.00;4.18;;;;;;;;;;4956876;28;20049;-75
2023/06/13 06:59:22;;;;;;;5.43;4.05;;;;;;;;;;4971183;28;20049;-75
2023/06/13 07:01:48;;;;;;;4.70;3.97;;;;;;;;;;4940946;28;20748;-75
2023/06/13 07:04:13;;;;;;;4.72;3.13;;;;;;;;;;4948710;28;20049;-75
2023/06/13 07:06:39;;;;;;;7.78;4.40;;;;;;;;;;4965939;28;20078;-75
2023/06/13 07:09:04;;;;;;;4.65;3.90;;;;;;;;;;4962450;28;20057;-75
2023/06/13 07:11:29;;;;;;;4.00;3.70;;;;;;;;;;4957401;28;20506;-75
2023/06/13 07:13:55;;;;;;;4.32;3.80;;;;;;;;;;4975808;28;20506;-75
2023/06/13 07:16:21;;;;;;;5.03;4.03;;;;;;;;;;4962207;28;20759;-75
2023/06/13 07:18:47;;;;;;;5.00;4.50;;;;;;;;;;4966711;28;20177;-75
2023/06/13 07:21:12;;;;;;;5.78;4.05;;;;;;;;;;4976355;28;20426;-75
2023/06/13 07:23:38;;;;;;;9.60;4.65;;;;;;;;;;4979621;28;20434;-75
2023/06/13 07:26:03;;;;;;;6.43;4.20;;;;;;;;;;4967517;28;20045;-75
2023/06/13 07:28:28;;;;;;;5.50;4.07;;;;;;;;;;4975227;28;20585;-75
2023/06/13 07:30:55;;;;;;;7.10;4.30;;;;;;;;;;4963467;28;20328;-75
2023/06/13 07:33:20;;;;;;;4.13;3.72;;;;;;;;;;4965954;28;20049;-75
2023/06/13 07:35:47;;;;;;;4.88;3.80;;;;;;;;;;4959615;28;20038;-75
2023/06/13 07:38:12;;;;;;;4.07;3.53;;;;;;;;;;4959455;28;20525;-75
2023/06/13 07:40:37;;;;;;;2.85;2.55;;;;;;;;;;4970732;28;20050;-75
2023/06/13 07:43:03;;;;;;;2.90;2.50;;;;;;;;;;4973511;28;20073;-75
2023/06/13 07:45:28;;;;;;;6.20;3.70;;;;;;;;;;4965718;28;20027;-75
2023/06/13 07:47:53;;;;;;;6.38;3.50;;;;;;;;;;4976669;28;20533;-75
2023/06/13 07:50:21;;;;;;;6.28;3.88;;;;;;;;;;4969796;28;20048;-75
2023/06/13 07:52:47;;;;;;;4.40;3.17;;;;;;;;;;4962103;28;20049;-75
2023/06/13 07:55:12;;;;;;;4.30;3.72;;;;;;;;;;4974614;28;20483;-76
2023/06/13 07:57:38;;;;;;;4.22;3.60;;;;;;;;;;4952325;28;20124;-76
2023/06/13 08:00:14;;;;;;;6.85;3.78;;;;;;;;;;4977878;28;20034;-75
2023/06/13 08:02:40;;;;;;;5.15;3.78;;;;;;;;;;4960457;28;20047;-75
2023/06/13 08:05:06;;;;;;;4.32;3.50;;;;;;;;;;4972661;28;20092;-76
2023/06/13 08:07:31;;;;;;;6.80;3.80;;;;;;;;;;4966085;28;20161;-75
2023/06/13 08:09:57;;;;;;;4.10;3.45;;;;;;;;;;4960260;28;20129;-75
2023/06/13 08:12:22;;;;;;;2.97;2.72;;;;;;;;;;4943882;28;20034;-76
2023/06/13 08:14:48;;;;;;;4.55;3.70;;;;;;;;;;4976065;28;20144;-75
2023/06/13 08:17:13;;;;;;;5.72;3.50;;;;;;;;;;4969070;28;20120;-76
2023/06/13 08:19:38;;;;;;;4.50;3.60;;;;;;;;;;4966587;28;20038;-76
2023/06/13 08:22:04;;;;;;;5.45;3.65;;;;;;;;;;4959403;28;20065;-75
2023/06/13 08:24:29;;;;;;;4.47;3.70;;;;;;;;;;4952080;28;20034;-76
2023/06/13 08:26:55;;;;;;;4.05;2.50;;;;;;;;;;4955608;28;20046;-76
2023/06/13 08:29:21;;;;;;;5.28;3.80;;;;;;;;;;4959075;28;20041;-75
2023/06/13 08:31:46;;;;;;;5.90;3.60;;;;;;;;;;4954136;28;20043;-76
2023/06/13 08:34:12;;;;;;;4.10;3.70;;;;;;;;;;4957188;28;20036;-75
2023/06/13 08:36:38;;;;;;;3.60;3.30;;;;;;;;;;4950412;28;20541;-75
2023/06/13 08:39:04;;;;;;;5.18;3.88;;;;;;;;;;4964325;28;20061;-75
2023/06/13 08:41:30;;;;;;;3.35;2.67;;;;;;;;;;4973125;28;20140;-76
2023/06/13 08:43:58;;;;;;;4.10;3.70;;;;;;;;;;4969865;28;20424;-76
2023/06/13 08:46:24;;;;;;;4.03;3.67;;;;;;;;;;4965187;28;20141;-76
2023/06/13 08:48:50;;;;;;;4.38;3.97;;;;;;;;;;4958918;28;20038;-75
2023/06/13 08:51:18;;;;;;;5.57;3.83;;;;;;;;;;4972113;28;20038;-75
2023/06/13 08:53:59;;;;;;;5.13;3.80;;;;;;;;;;4955835;28;20042;-75
2023/06/13 08:56:27;;;;;;;4.35;3.83;;;;;;;;;;4964744;28;20161;-75
2023/06/13 08:59:07;;;;;;;4.90;3.80;;;;;;;;;;4943021;28;20038;-75
2023/06/13 09:01:34;;;;;;;4.07;3.67;;;;;;;;;;4925109;28;20056;-76
2023/06/13 09:04:00;;;;;;;4.43;3.50;;;;;;;;;;4942794;28;20121;-75
2023/06/13 09:06:27;;;;;;;4.70;3.53;;;;;;;;;;4953549;28;20045;-75
2023/06/13 09:08:55;;;;;;;5.07;3.83;;;;;;;;;;4963091;28;20042;-75
2023/06/13 09:11:20;;;;;;;4.95;3.83;;;;;;;;;;4971958;28;20041;-76
2023/06/13 09:13:48;;;;;;;5.28;4.03;;;;;;;;;;4959615;28;20043;-76
2023/06/13 09:16:14;;;;;;;5.20;4.00;;;;;;;;;;4969684;28;20061;-76
2023/06/13 09:18:42;;;;;;;5.03;3.95;;;;;;;;;;4938624;28;20080;-75
2023/06/13 09:21:09;;;;;;;3.90;2.85;;;;;;;;;;4961028;28;20038;-76
2023/06/13 09:23:36;;;;;;;3.20;2.90;;;;;;;;;;4954965;28;20041;-75
2023/06/13 09:26:02;;;;;;;7.18;3.50;;;;;;;;;;4958575;28;20670;-76
2023/06/13 09:28:40;;;;;;;4.68;3.90;;;;;;;;;;4943538;28;20051;-76
2023/06/13 09:31:10;;;;;;;6.15;4.00;;;;;;;;;;4962863;28;20495;-76
2023/06/13 09:33:36;;;;;;;4.32;3.88;;;;;;;;;;4970651;28;20065;-76
2023/06/13 09:36:02;;;;;;;4.53;3.45;;;;;;;;;;4972395;28;20776;-76
2023/06/13 09:38:29;;;;;;;6.75;3.90;;;;;;;;;;4965870;28;20043;-76
2023/06/13 09:40:56;;;;;;;3.92;3.53;;;;;;;;;;4947743;28;20043;-76
2023/06/13 09:43:22;;;;;;;4.13;3.72;;;;;;;;;;4952380;28;20107;-76
2023/06/13 09:45:50;;;;;;;5.85;4.03;;;;;;;;;;4949219;28;20049;-76
2023/06/13 09:48:17;;;;;;;4.95;4.55;;;;;;;;;;4969917;28;20261;-76
2023/06/13 09:50:43;;;;;;;4.63;4.22;;;;;;;;;;4969281;28;20053;-76
2023/06/13 09:53:09;;;;;;;4.80;4.30;;;;;;;;;;4979225;23;20064;-73
2023/06/13 09:55:35;;;;;;;4.63;4.05;;;;;;;;;;4970061;28;20039;-73
2023/06/13 09:58:01;;;;;;;4.85;4.03;;;;;;;;;;4948101;28;20076;-73
2023/06/13 10:00:28;;;;;;;6.03;4.28;;;;;;;;;;4962926;28;20049;-73
2023/06/13 10:02:53;;;;;;;4.38;3.97;;;;;;;;;;4956159;28;20046;-73
2023/06/13 10:05:20;;;;;;;6.28;4.25;;;;;;;;;;4963417;28;20038;-73
2023/06/13 10:07:45;;;;;;;7.05;4.13;;;;;;;;;;4964334;28;20046;-73
2023/06/13 10:10:10;;;;;;;5.38;4.20;;;;;;;;;;4969001;28;20466;-73
2023/06/13 10:12:39;;;;;;;3.88;3.47;;;;;;;;;;4962692;28;20494;-73
2023/06/13 10:15:06;;;;;;;5.03;4.10;;;;;;;;;;4968127;28;20095;-73
2023/06/13 10:17:39;;;;;;;6.15;4.13;;;;;;;;;;4974163;28;20053;-73
2023/06/13 10:20:10;;;;;;;4.55;4.15;;;;;;;;;;4959337;28;20042;-73
2023/06/13 10:22:38;;;;;;;4.50;3.85;;;;;;;;;;4970687;28;20160;-73
2023/06/13 10:25:06;;;;;;;6.05;4.25;;;;;;;;;;4950041;28;20031;-73
2023/06/13 10:27:32;;;;;;;7.35;3.55;;;;;;;;;;4982589;28;20129;-73
2023/06/13 10:30:15;;;;;;;4.68;4.18;;;;;;;;;;4972908;28;20157;-73
2023/06/13 10:32:59;;;;;;;4.30;3.90;;;;;;;;;;4972279;28;20062;-73
2023/06/13 10:35:30;;;;;;;5.47;3.88;;;;;;;;;;4964211;28;20096;-74
2023/06/13 10:37:57;;;;;;;5.40;3.95;;;;;;;;;;4956619;28;20053;-74
2023/06/13 10:40:43;;;;;;;5.35;4.15;;;;;;;;;;4945275;28;20038;-74
2023/06/13 10:43:33;;;;;;;4.10;3.80;;;;;;;;;;4949909;28;20053;-73
2023/06/13 10:46:04;;;;;;;7.70;4.20;;;;;;;;;;4958195;28;20038;-74
2023/06/13 10:48:47;;;;;;;13.68;4.65;;;;;;;;;;4984573;28;20050;-73
2023/06/13 10:51:12;;;;;;;4.35;3.85;;;;;;;;;;4985770;28;20029;-74
2023/06/13 10:53:38;;;;;;;5.20;4.20;;;;;;;;;;4982933;28;20092;-73
2023/06/13 10:56:07;;;;;;;4.57;4.18;;;;;;;;;;4966236;28;20034;-73
2023/06/13 10:58:34;;;;;;;5.60;4.18;;;;;;;;;;4979276;28;20172;-74
2023/06/13 11:01:24;;;;;;;5.63;3.80;;;;;;;;;;4983733;28;20541;-73
2023/06/13 11:03:50;;;;;;;;;;;;;;;;;;4967997;28;20225;-74
2023/06/13 11:06:16;;;;;;;3.95;3.55;;;;;;;;;;4978616;28;20381;-73
2023/06/13 11:08:42;;;;;;;4.22;3.58;;;;;;;;;;4970807;28;20042;-74
2023/06/13 11:11:09;;;;;;;4.53;4.13;;;;;;;;;;4966290;28;20461;-74
2023/06/13 11:13:35;;;;;;;4.38;3.97;;;;;;;;;;4969352;28;20650;-73
2023/06/13 11:16:18;;;;;;;6.25;4.00;;;;;;;;;;4983744;28;20066;-73
2023/06/13 11:18:47;;;;;;;5.35;3.97;;;;;;;;;;4954149;28;20571;-73
2023/06/13 11:21:13;;;;;;;6.78;4.22;;;;;;;;;;4948058;28;20386;-74
2023/06/13 11:23:50;;;;;;;4.22;3.92;;;;;;;;;;4976980;28;20121;-74
2023/06/13 11:26:20;;;;;;;4.40;4.00;;;;;;;;;;4972442;28;20426;-74
2023/06/13 11:28:52;;;;;;;4.38;3.97;;;;;;;;;;4960995;28;20422;-74
2023/06/13 11:31:18;;;;;;;4.03;3.63;;;;;;;;;;4969194;28;20049;-74
2023/06/13 11:33:49;;;;;;;5.65;4.35;;;;;;;;;;4975380;28;20088;-74
2023/06/13 11:36:16;;;;;;;4.32;3.55;;;;;;;;;;4984951;28;20076;-74
2023/06/13 11:38:54;;;;;;;5.05;4.15;;;;;;;;;;4973435;28;20049;-74
2023/06/13 11:41:19;;;;;;;4.28;3.88;;;;;;;;;;4966420;28;20371;-73
2023/06/13 11:43:45;;;;;;;4.90;4.38;;;;;;;;;;4959245;28;20041;-74
2023/06/13 11:46:12;;;;;;;4.45;3.83;;;;;;;;;;4969579;28;20039;-73
2023/06/13 11:48:37;;;;;;;4.15;3.75;;;;;;;;;;4981506;28;20041;-73
2023/06/13 11:51:08;;;;;;;4.80;4.40;;;;;;;;;;4967991;28;20439;-74
2023/06/13 11:53:56;;;;;;;7.25;4.10;;;;;;;;;;4974309;28;20054;-74
2023/06/13 11:56:23;;;;;;;4.40;3.95;;;;;;;;;;4966076;28;20043;-74
2023/06/13 11:58:50;;;;;;;5.25;4.30;;;;;;;;;;4960719;28;20492;-74
2023/06/13 12:01:16;;;;;;;4.20;3.90;;;;;;;;;;4976647;28;20048;-73
2023/06/13 12:03:45;;;;;;;4.07;3.78;;;;;;;;;;4989864;28;20042;-74
2023/06/13 12:06:11;;;;;;;4.63;4.20;;;;;;;;;;4981365;28;20038;-73
2023/06/13 12:08:41;;;;;;;4.63;3.97;;;;;;;;;;4966093;28;20042;-73
2023/06/13 12:11:08;;;;;;;4.43;4.03;;;;;;;;;;4957494;28;20503;-74
2023/06/13 12:13:34;;;;;;;4.00;3.60;;;;;;;;;;4967729;28;20454;-74
2023/06/13 12:16:00;;;;;;;6.63;4.55;;;;;;;;;;4975962;28;20042;-73
2023/06/13 12:18:28;;;;;;;5.05;4.43;;;;;;;;;;4973946;28;20512;-74
2023/06/13 12:20:56;;;;;;;5.40;4.32;;;;;;;;;;4971357;28;20049;-74
2023/06/13 12:23:23;;;;;;;6.38;3.85;;;;;;;;;;4975044;28;20046;-74
2023/06/13 12:25:49;;;;;;;6.68;4.05;;;;;;;;;;4958668;28;20169;-73
2023/06/13 12:28:18;;;;;;;5.20;4.70;;;;;;;;;;4960975;28;20129;-73
2023/06/13 12:30:46;;;;;;;4.80;4.40;;;;;;;;;;4977184;28;20532;-73
2023/06/13 12:33:15;;;;;;;6.28;4.30;;;;;;;;;;4979767;28;20326;-73
2023/06/13 12:35:54;;;;;;;7.97;4.82;;;;;;;;;;4966428;28;20089;-73
2023/06/13 12:38:26;;;;;;;5.05;3.95;;;;;;;;;;4946517;28;20102;-74
2023/06/13 12:40:52;;;;;;;4.95;3.40;;;;;;;;;;4981863;28;20026;-74
2023/06/13 12:43:28;;;;;;;5.88;4.60;;;;;;;;;;4960358;28;20134;-73
2023/06/13 12:45:58;;;;;;;5.60;3.95;;;;;;;;;;4972293;28;20037;-73
2023/06/13 12:48:25;;;;;;;5.82;4.35;;;;;;;;;;4979235;28;20034;-74
2023/06/13 12:50:51;;;;;;;6.50;4.53;;;;;;;;;;4990632;28;20042;-73
2023/06/13 12:53:22;;;;;;;5.22;3.90;;;;;;;;;;4992415;28;20061;-73
2023/06/13 12:55:49;;;;;;;4.75;4.35;;;;;;;;;;4966561;28;20056;-74
2023/06/13 12:58:26;;;;;;;4.40;4.00;;;;;;;;;;4945998;28;20128;-73
2023/06/13 13:00:53;;;;;;;6.50;4.38;;;;;;;;;;4950783;28;20060;-74
2023/06/13 13:03:18;;;;;;;6.25;4.20;;;;;;;;;;4992818;28;20116;-74
2023/06/13 13:05:44;;;;;;;6.15;4.47;;;;;;;;;;4991245;28;20125;-73
2023/06/13 13:08:09;;;;;;;5.32;4.07;;;;;;;;;;4976942;28;20165;-73
2023/06/13 13:10:34;;;;;;;6.38;4.30;;;;;;;;;;4960448;28;20068;-73
2023/06/13 13:13:01;;;;;;;5.93;4.57;;;;;;;;;;4974152;28;20526;-73
2023/06/13 13:15:26;;;;;;;4.78;4.35;;;;;;;;;;4980467;28;20501;-74
2023/06/13 13:17:51;;;;;;;6.68;4.18;;;;;;;;;;4975315;28;20034;-73
2023/06/13 13:20:17;;;;;;;5.43;4.63;;;;;;;;;;4979588;28;20037;-73
2023/06/13 13:22:42;;;;;;;5.70;4.38;;;;;;;;;;4986978;28;20072;-73
2023/06/13 13:25:08;;;;;;;5.00;4.50;;;;;;;;;;4959588;28;20560;-73
2023/06/13 13:27:33;;;;;;;5.50;4.65;;;;;;;;;;4935661;28;20072;-73
2023/06/13 13:29:59;;;;;;;4.63;4.22;;;;;;;;;;4970960;28;20046;-74
2023/06/13 13:32:24;;;;;;;5.25;4.75;;;;;;;;;;4974728;28;20038;-73
2023/06/13 13:34:49;;;;;;;6.70;4.70;;;;;;;;;;4964825;28;20038;-73
2023/06/13 13:37:15;;;;;;;4.70;4.30;;;;;;;;;;4954726;28;20510;-73
2023/06/13 13:39:40;;;;;;;5.00;4.20;;;;;;;;;;4942134;28;20522;-74
2023/06/13 13:42:06;;;;;;;5.20;3.92;;;;;;;;;;4981741;28;20494;-73
2023/06/13 13:44:31;;;;;;;4.95;4.28;;;;;;;;;;4974911;28;20076;-73
2023/06/13 13:46:57;;;;;;;5.35;3.60;;;;;;;;;;4983949;28;20038;-73
2023/06/13 13:49:22;;;;;;;3.53;3.28;;;;;;;;;;4977156;28;20757;-73
2023/06/13 13:51:48;;;;;;;5.07;3.92;;;;;;;;;;4986542;28;20053;-73
2023/06/13 13:54:14;;;;;;;5.97;4.20;;;;;;;;;;4977405;28;20045;-73
2023/06/13 13:56:39;;;;;;;5.15;4.13;;;;;;;;;;4989081;28;20039;-73
2023/06/13 13:59:05;;;;;;;5.65;4.10;;;;;;;;;;4959474;28;20072;-73
2023/06/13 14:01:31;;;;;;;4.95;4.43;;;;;;;;;;4984489;28;20240;-73
2023/06/13 14:03:56;;;;;;;5.28;4.00;;;;;;;;;;4986537;28;20417;-73
2023/06/13 14:06:22;;;;;;;4.82;3.63;;;;;;;;;;4990426;28;20053;-73
2023/06/13 14:08:47;;;;;;;6.47;4.15;;;;;;;;;;4969011;28;20127;-73
2023/06/13 14:11:13;;;;;;;4.10;3.70;;;;;;;;;;4969737;28;20041;-73
2023/06/13 14:13:40;;;;;;;5.45;3.80;;;;;;;;;;4959911;28;20043;-73
2023/06/13 14:16:05;;;;;;;5.75;3.95;;;;;;;;;;4972529;28;20089;-74
2023/06/13 14:18:30;;;;;;;4.10;3.72;;;;;;;;;;4946016;28;20509;-73
2023/06/13 14:20:57;;;;;;;5.32;4.00;;;;;;;;;;4981108;28;20121;-73
2023/06/13 14:23:23;;;;;;;4.15;3.28;;;;;;;;;;4981797;28;20391;-73
2023/06/13 14:25:48;;;;;;;5.18;3.95;;;;;;;;;;4979712;28;20041;-74
2023/06/13 14:28:14;;;;;;;6.15;4.07;;;;;;;;;;4977163;28;20039;-73
2023/06/13 14:30:40;;;;;;;6.47;4.20;;;;;;;;;;4984125;28;20041;-73
2023/06/13 14:33:05;;;;;;;4.20;3.63;;;;;;;;;;4990376;28;20095;-73
2023/06/13 14:35:31;;;;;;;4.43;3.80;;;;;;;;;;4992549;28;20046;-73
2023/06/13 14:37:57;;;;;;;4.30;3.83;;;;;;;;;;4978428;28;20500;-73
2023/06/13 14:40:23;;;;;;;4.35;3.72;;;;;;;;;;4968842;28;20575;-73
2023/06/13 14:42:49;;;;;;;7.25;3.97;;;;;;;;;;4975771;28;20038;-73
2023/06/13 14:45:16;;;;;;;3.40;3.10;;;;;;;;;;4965738;28;20046;-73